createdAt,value
2022-11-27T00:01:20.863Z,4.28
2022-11-27T00:03:48.126Z,4.22
2022-11-27T00:06:20.977Z,3.70
2022-11-27T00:08:48.287Z,4.53
2022-11-27T00:11:17.925Z,4.22
2022-11-27T00:13:45.211Z,3.83
2022-11-27T00:16:12.453Z,4.15
2022-11-27T00:18:39.239Z,4.03
2022-11-27T00:21:08.891Z,4.15
2022-11-27T00:23:35.403Z,4.03
2022-11-27T00:26:02.946Z,4.00
2022-11-27T00:28:29.897Z,4.35
2022-11-27T00:31:01.411Z,3.63
2022-11-27T00:33:28.040Z,4.18
2022-11-27T00:35:54.517Z,4.25
2022-11-27T00:38:20.996Z,3.85
2022-11-27T00:40:47.788Z,4.13
2022-11-27T00:43:14.167Z,4.40
2022-11-27T00:45:40.532Z,4.47
2022-11-27T00:48:06.932Z,4.05
2022-11-27T00:50:33.337Z,4.30
2022-11-27T00:52:59.821Z,4.50
2022-11-27T00:55:26.721Z,3.90
2022-11-27T00:57:53.117Z,4.28
2022-11-27T01:00:19.837Z,3.85
2022-11-27T01:02:46.345Z,4.10
2022-11-27T01:05:12.975Z,4.78
2022-11-27T01:07:39.441Z,3.80
2022-11-27T01:10:06.745Z,3.78
2022-11-27T01:12:33.112Z,4.05
2022-11-27T01:14:59.579Z,4.10
2022-11-27T01:17:25.951Z,4.05
2022-11-27T01:19:52.343Z,4.75
2022-11-27T01:22:18.718Z,3.92
2022-11-27T01:24:45.155Z,4.63
2022-11-27T01:27:11.555Z,4.78
2022-11-27T01:29:37.920Z,5.50
2022-11-27T01:32:04.523Z,4.32
2022-11-27T01:34:30.919Z,4.32
2022-11-27T01:36:57.304Z,4.15
2022-11-27T01:39:24.703Z,4.60
2022-11-27T01:41:51.288Z,4.03
2022-11-27T01:44:23.488Z,4.40
2022-11-27T01:47:22.024Z,4.90
2022-11-27T01:49:51.950Z,3.97
2022-11-27T01:52:27.635Z,4.47
2022-11-27T01:55:08.968Z,4.07
2022-11-27T01:57:44.571Z,4.72
2022-11-27T02:00:14.006Z,4.40
2022-11-27T02:02:41.865Z,4.10
2022-11-27T02:05:09.460Z,4.55
2022-11-27T02:07:36.360Z,4.95
2022-11-27T02:10:04.673Z,4.57
2022-11-27T02:12:52.086Z,4.30
2022-11-27T02:15:37.888Z,4.43
2022-11-27T02:18:09.983Z,5.20
2022-11-27T02:21:01.058Z,4.93
2022-11-27T02:23:47.618Z,4.63
2022-11-27T02:26:51.838Z,5.50
2022-11-27T02:29:23.282Z,4.47
2022-11-27T02:32:08.298Z,4.97
2022-11-27T02:35:02.598Z,5.70
2022-11-27T02:37:31.999Z,4.57
2022-11-27T02:40:23.686Z,5.30
2022-11-27T02:42:59.448Z,4.38
2022-11-27T02:45:34.641Z,4.63
2022-11-27T02:48:02.155Z,5.00
2022-11-27T02:50:32.153Z,5.57
2022-11-27T02:53:03.972Z,5.68
2022-11-27T02:55:33.466Z,5.45
2022-11-27T02:58:02.052Z,5.28
2022-11-27T03:00:30.168Z,5.03
2022-11-27T03:03:01.927Z,5.30
2022-11-27T03:05:32.616Z,4.88
2022-11-27T03:08:13.425Z,5.35
2022-11-27T03:11:15.912Z,4.57
2022-11-27T03:13:46.608Z,5.32
2022-11-27T03:16:24.873Z,5.38
2022-11-27T03:19:03.628Z,5.05
2022-11-27T03:21:35.912Z,4.97
2022-11-27T03:24:02.684Z,5.00
2022-11-27T03:26:29.149Z,5.40
2022-11-27T03:28:56.970Z,5.10
2022-11-27T03:31:24.077Z,4.90
2022-11-27T03:33:51.151Z,5.45
2022-11-27T03:36:21.063Z,4.88
2022-11-27T03:38:49.778Z,4.60
2022-11-27T03:41:21.296Z,4.75
2022-11-27T03:44:23.681Z,4.85
2022-11-27T03:47:27.547Z,4.57
2022-11-27T03:50:05.428Z,4.90
2022-11-27T03:53:13.821Z,4.70
2022-11-27T03:55:49.514Z,4.65
2022-11-27T03:58:34.772Z,4.65
2022-11-27T04:01:04.458Z,4.65
2022-11-27T04:03:31.568Z,4.85
2022-11-27T04:05:58.221Z,4.50
2022-11-27T04:08:25.097Z,5.00
2022-11-27T04:10:51.477Z,4.28
2022-11-27T04:13:17.861Z,4.55
2022-11-27T04:15:44.286Z,4.57
2022-11-27T04:18:10.753Z,4.75
2022-11-27T04:20:37.121Z,3.67
2022-11-27T04:23:03.618Z,4.38
2022-11-27T04:25:29.995Z,4.00
2022-11-27T04:27:56.728Z,4.35
2022-11-27T04:30:23.661Z,4.47
2022-11-27T04:32:50.035Z,4.47
2022-11-27T04:35:16.422Z,5.00
2022-11-27T04:37:42.836Z,4.80
2022-11-27T04:40:09.720Z,4.82
2022-11-27T04:42:36.066Z,4.15
2022-11-27T04:45:02.465Z,4.05
2022-11-27T04:47:28.858Z,4.20
2022-11-27T04:49:55.269Z,4.05
2022-11-27T04:52:21.648Z,3.88
2022-11-27T04:54:48.019Z,4.10
2022-11-27T04:57:14.452Z,4.45
2022-11-27T04:59:40.972Z,3.92
2022-11-27T05:02:07.435Z,3.95
2022-11-27T05:04:34.135Z,3.55
2022-11-27T05:07:00.635Z,4.07
2022-11-27T05:09:27.107Z,3.67
2022-11-27T05:11:53.629Z,3.95
2022-11-27T05:14:21.876Z,3.67
2022-11-27T05:16:54.461Z,3.75
2022-11-27T05:19:23.130Z,4.28
2022-11-27T05:21:50.580Z,4.30
2022-11-27T05:24:18.820Z,4.35
2022-11-27T05:26:45.372Z,4.28
2022-11-27T05:29:12.865Z,3.80
2022-11-27T05:31:40.014Z,4.43
2022-11-27T05:34:07.697Z,3.85
2022-11-27T05:36:34.988Z,4.25
2022-11-27T05:39:03.113Z,3.65
2022-11-27T05:41:30.069Z,4.57
2022-11-27T05:43:56.502Z,3.65
2022-11-27T05:46:23.370Z,4.18
2022-11-27T05:48:50.374Z,3.50
2022-11-27T05:51:17.945Z,3.70
2022-11-27T05:53:44.958Z,3.85
2022-11-27T05:56:14.257Z,3.67
2022-11-27T05:58:42.154Z,4.10
2022-11-27T06:01:10.449Z,4.32
2022-11-27T06:03:38.998Z,3.78
2022-11-27T06:06:10.473Z,4.10
2022-11-27T06:08:38.207Z,3.90
2022-11-27T06:11:21.270Z,3.20
2022-11-27T06:13:49.234Z,3.50
2022-11-27T06:16:18.648Z,4.03
2022-11-27T06:18:45.595Z,3.67
2022-11-27T06:21:14.290Z,4.25
2022-11-27T06:23:42.876Z,3.72
2022-11-27T06:26:20.943Z,4.18
2022-11-27T06:28:48.399Z,4.82
2022-11-27T06:31:18.797Z,3.85
2022-11-27T06:33:46.944Z,4.65
2022-11-27T06:36:13.507Z,4.13
2022-11-27T06:38:40.302Z,4.20
2022-11-27T06:41:09.882Z,4.68
2022-11-27T06:43:36.820Z,5.30
2022-11-27T06:46:04.618Z,4.53
2022-11-27T06:48:31.851Z,4.88
2022-11-27T06:51:03.271Z,4.85
2022-11-27T06:53:30.932Z,4.82
2022-11-27T06:55:57.677Z,4.85
2022-11-27T06:58:29.327Z,4.63
2022-11-27T07:01:03.101Z,5.20
2022-11-27T07:03:30.105Z,5.15
2022-11-27T07:06:00.311Z,4.95
2022-11-27T07:08:27.258Z,5.03
2022-11-27T07:10:54.228Z,5.03
2022-11-27T07:13:20.722Z,5.50
2022-11-27T07:15:47.289Z,4.82
2022-11-27T07:18:13.829Z,5.30
2022-11-27T07:20:40.364Z,5.13
2022-11-27T07:23:06.968Z,5.50
2022-11-27T07:25:33.501Z,5.13
2022-11-27T07:27:59.963Z,5.53
2022-11-27T07:30:26.516Z,5.32
2022-11-27T07:32:52.926Z,5.63
2022-11-27T07:35:19.518Z,5.43
2022-11-27T07:37:46.081Z,5.28
2022-11-27T07:40:14.861Z,5.35
2022-11-27T07:42:41.738Z,5.50
2022-11-27T07:45:09.462Z,5.80
2022-11-27T07:47:36.141Z,5.18
2022-11-27T07:50:02.707Z,4.80
2022-11-27T07:52:29.263Z,4.95
2022-11-27T07:54:55.794Z,5.28
2022-11-27T07:57:22.327Z,4.70
2022-11-27T07:59:48.927Z,5.13
2022-11-27T08:02:15.827Z,5.20
2022-11-27T08:04:42.582Z,5.53
2022-11-27T08:07:09.419Z,5.22
2022-11-27T08:09:35.927Z,4.78
2022-11-27T08:12:02.426Z,5.38
2022-11-27T08:14:29.020Z,5.68
2022-11-27T08:16:55.841Z,5.35
2022-11-27T08:19:22.488Z,5.22
2022-11-27T08:21:49.007Z,5.20
2022-11-27T08:24:15.705Z,5.93
2022-11-27T08:26:42.425Z,5.70
2022-11-27T08:29:12.246Z,4.95
2022-11-27T08:31:39.056Z,5.20
2022-11-27T08:34:05.977Z,5.55
2022-11-27T08:36:32.532Z,4.90
2022-11-27T08:38:59.189Z,4.90
2022-11-27T08:41:26.801Z,5.38
2022-11-27T08:43:53.301Z,5.55
2022-11-27T08:46:19.914Z,5.13
2022-11-27T08:48:46.473Z,5.40
2022-11-27T08:51:15.301Z,5.75
2022-11-27T08:53:44.409Z,5.70
2022-11-27T08:56:19.098Z,6.00
2022-11-27T08:58:45.884Z,5.43
2022-11-27T09:01:19.301Z,6.05
2022-11-27T09:03:46.794Z,6.40
2022-11-27T09:06:16.841Z,5.68
2022-11-27T09:08:43.955Z,6.13
2022-11-27T09:11:12.133Z,6.13
2022-11-27T09:13:40.244Z,5.88
2022-11-27T09:16:10.176Z,5.55
2022-11-27T09:18:37.151Z,6.25
2022-11-27T09:21:06.840Z,5.95
2022-11-27T09:23:33.870Z,6.05
2022-11-27T09:26:02.361Z,6.22
2022-11-27T09:28:31.535Z,5.80
2022-11-27T09:31:00.598Z,5.72
2022-11-27T09:33:28.926Z,6.28
2022-11-27T09:35:55.711Z,5.78
2022-11-27T09:38:23.566Z,6.07
2022-11-27T09:40:52.315Z,6.05
2022-11-27T09:43:28.455Z,5.75
2022-11-27T09:46:01.413Z,5.90
2022-11-27T09:51:05.599Z,5.10
2022-11-27T09:53:52.568Z,5.82
2022-11-27T09:56:20.324Z,6.00
2022-11-27T09:59:00.579Z,5.57
2022-11-27T10:01:36.485Z,6.13
2022-11-27T10:04:10.891Z,6.38
2022-11-27T10:07:07.460Z,5.68
2022-11-27T10:09:40.784Z,5.43
2022-11-27T10:12:38.093Z,5.38
2022-11-27T10:15:25.386Z,6.20
2022-11-27T10:18:17.728Z,5.63
2022-11-27T10:20:49.456Z,5.30
2022-11-27T10:23:41.773Z,6.13
2022-11-27T10:26:19.065Z,5.50
2022-11-27T10:29:12.139Z,5.65
2022-11-27T10:32:01.229Z,5.00
2022-11-27T10:34:43.287Z,5.10
2022-11-27T10:37:13.018Z,5.53
2022-11-27T10:39:45.415Z,5.22
2022-11-27T10:42:22.678Z,5.97
2022-11-27T10:45:03.843Z,4.82
2022-11-27T10:47:33.849Z,5.35
2022-11-27T10:50:01.155Z,5.55
2022-11-27T10:52:27.703Z,5.65
2022-11-27T10:55:03.041Z,5.55
2022-11-27T10:57:56.135Z,5.55
2022-11-27T11:00:25.049Z,4.97
2022-11-27T11:03:17.118Z,4.80
2022-11-27T11:08:42.731Z,5.50
2022-11-27T11:11:09.804Z,4.65
2022-11-27T11:13:45.973Z,4.78
2022-11-27T11:16:14.906Z,4.57
2022-11-27T11:18:43.179Z,5.20
2022-11-27T11:21:17.226Z,5.07
2022-11-27T11:23:46.734Z,5.07
2022-11-27T11:26:19.133Z,5.03
2022-11-27T11:28:52.103Z,5.32
2022-11-27T11:31:21.924Z,4.78
2022-11-27T11:33:57.362Z,5.30
2022-11-27T11:36:23.853Z,4.53
2022-11-27T11:38:51.868Z,4.93
2022-11-27T11:41:18.878Z,4.50
2022-11-27T11:44:00.952Z,4.43
2022-11-27T11:46:32.641Z,3.80
2022-11-27T11:49:07.389Z,4.80
2022-11-27T11:51:52.441Z,4.28
2022-11-27T11:54:48.947Z,4.47
2022-11-27T11:57:34.466Z,4.03
2022-11-27T12:00:14.225Z,4.47
2022-11-27T12:03:04.938Z,3.80
2022-11-27T12:05:49.966Z,4.05
2022-11-27T12:08:54.010Z,4.05
2022-11-27T12:11:53.550Z,3.85
2022-11-27T12:14:28.586Z,3.65
2022-11-27T12:17:27.788Z,5.22
2022-11-27T12:20:09.367Z,4.47
2022-11-27T12:23:03.344Z,3.80
2022-11-27T12:25:55.968Z,3.60
2022-11-27T12:28:52.123Z,2.77
2022-11-27T12:31:43.216Z,3.28
2022-11-27T12:34:27.540Z,3.35
2022-11-27T12:37:02.973Z,3.45
2022-11-27T12:40:04.513Z,4.22
2022-11-27T12:43:07.752Z,3.53
2022-11-27T12:45:43.668Z,3.33
2022-11-27T12:48:19.785Z,3.13
2022-11-27T12:51:01.157Z,3.70
2022-11-27T12:53:45.373Z,3.55
2022-11-27T12:56:30.113Z,3.78
2022-11-27T12:59:08.251Z,3.50
2022-11-27T13:01:51.620Z,3.50
2022-11-27T13:04:22.129Z,3.50
2022-11-27T13:06:58.626Z,3.42
2022-11-27T13:09:45.614Z,3.53
2022-11-27T13:12:22.307Z,3.13
2022-11-27T13:15:00.338Z,3.38
2022-11-27T13:17:34.074Z,3.47
2022-11-27T13:20:02.420Z,3.10
2022-11-27T13:22:34.552Z,3.38
2022-11-27T13:25:02.159Z,3.23
2022-11-27T13:27:31.498Z,3.17
2022-11-27T13:30:05.401Z,3.30
2022-11-27T13:32:38.090Z,3.20
2022-11-27T13:35:16.797Z,2.80
2022-11-27T13:37:45.087Z,3.25
2022-11-27T13:40:20.943Z,3.17
2022-11-27T13:42:55.366Z,3.78
2022-11-27T13:45:31.035Z,2.92
2022-11-27T13:47:59.704Z,3.05
2022-11-27T13:50:31.074Z,3.28
2022-11-27T13:53:05.898Z,3.70
2022-11-27T13:55:35.585Z,3.30
2022-11-27T13:58:03.572Z,3.42
2022-11-27T14:00:40.878Z,3.70
2022-11-27T14:03:20.152Z,3.50
2022-11-27T14:05:46.564Z,2.78
2022-11-27T14:08:26.840Z,2.30
2022-11-27T14:10:58.417Z,2.50
2022-11-27T14:13:54.218Z,2.53
2022-11-27T14:16:33.094Z,3.10
2022-11-27T14:19:06.825Z,2.65
2022-11-27T14:21:38.877Z,2.38
2022-11-27T14:24:33.278Z,2.88
2022-11-27T14:26:59.727Z,2.58
2022-11-27T14:29:30.088Z,2.30
2022-11-27T14:32:01.798Z,2.67
2022-11-27T14:34:33.178Z,2.30
2022-11-27T14:37:00.651Z,1.98
2022-11-27T14:39:35.431Z,2.63
2022-11-27T14:42:07.794Z,2.35
2022-11-27T14:44:35.047Z,2.30
2022-11-27T14:47:05.359Z,2.60
2022-11-27T14:49:33.023Z,2.53
2022-11-27T14:52:06.815Z,2.60
2022-11-27T14:54:37.023Z,2.53
2022-11-27T14:57:05.052Z,2.50
2022-11-27T14:59:31.537Z,2.33
2022-11-27T15:02:18.653Z,1.90
2022-11-27T15:04:46.520Z,2.60
2022-11-27T15:07:20.571Z,2.45
2022-11-27T15:09:50.167Z,2.83
2022-11-27T15:12:21.746Z,2.92
2022-11-27T15:14:59.761Z,2.72
2022-11-27T15:17:29.897Z,2.70
2022-11-27T15:19:58.024Z,2.50
2022-11-27T15:22:24.676Z,2.47
2022-11-27T15:25:06.981Z,2.67
2022-11-27T15:27:53.586Z,2.78
2022-11-27T15:30:20.260Z,3.20
2022-11-27T15:32:51.901Z,3.20
2022-11-27T15:35:36.854Z,2.78
2022-11-27T15:38:10.602Z,2.88
2022-11-27T15:40:41.038Z,2.85
2022-11-27T15:43:13.262Z,3.17
2022-11-27T15:45:40.609Z,3.03
2022-11-27T15:48:18.936Z,2.90
2022-11-27T15:50:51.335Z,2.92
2022-11-27T15:55:44.793Z,2.50
2022-11-27T15:58:11.246Z,2.95
2022-11-27T16:00:37.719Z,3.33
2022-11-27T16:03:04.140Z,2.83
2022-11-27T16:05:30.564Z,3.03
2022-11-27T16:07:57.583Z,3.50
2022-11-27T16:10:24.230Z,3.45
2022-11-27T16:12:54.761Z,3.40
2022-11-27T16:15:23.221Z,3.55
2022-11-27T16:17:50.550Z,3.58
2022-11-27T16:20:17.118Z,2.90
2022-11-27T16:22:43.499Z,3.28
2022-11-27T16:25:09.991Z,3.58
2022-11-27T16:27:36.400Z,2.92
2022-11-27T16:30:02.906Z,3.35
2022-11-27T16:32:29.236Z,3.20
2022-11-27T16:34:55.611Z,3.10
2022-11-27T16:37:22.200Z,3.00
2022-11-27T16:39:48.621Z,2.88
2022-11-27T16:42:15.019Z,3.38
2022-11-27T16:44:43.274Z,2.92
2022-11-27T16:47:09.954Z,3.50
2022-11-27T16:49:36.304Z,3.50
2022-11-27T16:52:03.049Z,3.17
2022-11-27T16:54:29.424Z,3.80
2022-11-27T16:56:55.864Z,3.58
2022-11-27T16:59:22.226Z,3.60
2022-11-27T17:01:48.819Z,3.90
2022-11-27T17:04:20.072Z,3.25
2022-11-27T17:06:48.586Z,3.30
2022-11-27T17:09:15.943Z,3.35
2022-11-27T17:11:44.983Z,3.17
2022-11-27T17:14:11.770Z,3.35
2022-11-27T17:16:41.326Z,3.22
2022-11-27T17:19:11.472Z,3.63
2022-11-27T17:21:38.279Z,3.15
2022-11-27T17:24:15.234Z,2.97
2022-11-27T17:26:43.678Z,3.47
2022-11-27T17:29:15.228Z,2.90
2022-11-27T17:31:42.100Z,2.97
2022-11-27T17:34:11.735Z,3.00
2022-11-27T17:36:40.713Z,2.88
2022-11-27T17:39:07.239Z,3.13
2022-11-27T17:41:34.391Z,3.58
2022-11-27T17:44:04.103Z,3.17
2022-11-27T17:46:30.787Z,3.30
2022-11-27T17:49:00.416Z,2.75
2022-11-27T17:51:29.446Z,2.88
2022-11-27T17:54:00.750Z,2.63
2022-11-27T17:56:28.232Z,2.95
2022-11-27T17:58:55.201Z,2.95
2022-11-27T18:01:25.018Z,3.10
2022-11-27T18:03:54.116Z,3.08
2022-11-27T18:06:22.744Z,2.65
2022-11-27T18:08:49.490Z,2.70
2022-11-27T18:11:18.689Z,2.70
2022-11-27T18:13:45.463Z,2.75
2022-11-27T18:16:17.112Z,2.97
2022-11-27T18:18:43.997Z,2.60
2022-11-27T18:21:18.563Z,3.25
2022-11-27T18:24:14.923Z,2.78
2022-11-27T18:27:00.573Z,2.55
2022-11-27T18:29:21.370Z,2.33
2022-11-27T18:31:48.034Z,2.40
2022-11-27T18:34:14.665Z,2.83
2022-11-27T18:36:42.194Z,2.63
2022-11-27T18:39:08.690Z,2.78
2022-11-27T18:41:35.258Z,2.83
2022-11-27T18:44:01.747Z,2.53
2022-11-27T18:46:28.518Z,2.78
2022-11-27T18:48:55.327Z,2.90
2022-11-27T18:51:23.911Z,2.75
2022-11-27T18:53:51.911Z,3.00
2022-11-27T18:56:24.307Z,2.78
2022-11-27T18:58:51.253Z,2.47
2022-11-27T19:01:23.015Z,2.70
2022-11-27T19:03:49.915Z,2.70
2022-11-27T19:06:18.151Z,2.70
2022-11-27T19:08:45.733Z,2.45
2022-11-27T19:11:15.097Z,2.40
2022-11-27T19:13:43.217Z,2.10
2022-11-27T19:16:12.904Z,2.22
2022-11-27T19:18:39.867Z,2.55
2022-11-27T19:21:10.579Z,2.78
2022-11-27T19:23:39.340Z,2.42
2022-11-27T19:26:14.471Z,2.22
2022-11-27T19:28:41.760Z,2.65
2022-11-27T19:31:10.386Z,2.53
2022-11-27T19:33:37.784Z,2.53
2022-11-27T19:36:08.680Z,2.40
2022-11-27T19:38:36.109Z,2.42
2022-11-27T19:41:04.271Z,2.75
2022-11-27T19:43:30.675Z,2.80
2022-11-27T19:45:57.232Z,2.25
2022-11-27T19:48:23.932Z,2.92
2022-11-27T19:50:51.744Z,2.70
2022-11-27T19:53:18.886Z,2.47
2022-11-27T19:55:53.054Z,2.38
2022-11-27T19:58:19.578Z,3.10
2022-11-27T20:00:46.161Z,2.42
2022-11-27T20:03:12.758Z,2.58
2022-11-27T20:05:39.220Z,2.85
2022-11-27T20:08:05.842Z,2.60
2022-11-27T20:10:32.407Z,2.65
2022-11-27T20:13:02.459Z,2.88
2022-11-27T20:15:29.645Z,2.55
2022-11-27T20:17:56.182Z,2.55
2022-11-27T20:20:22.736Z,2.25
2022-11-27T20:22:50.289Z,2.50
2022-11-27T20:25:19.891Z,2.38
2022-11-27T20:27:47.017Z,2.15
2022-11-27T20:30:13.960Z,2.58
2022-11-27T20:32:40.446Z,2.92
2022-11-27T20:35:07.259Z,2.88
2022-11-27T20:37:34.001Z,2.55
2022-11-27T20:40:00.600Z,2.25
2022-11-27T20:42:27.111Z,2.67
2022-11-27T20:44:53.757Z,2.70
2022-11-27T20:47:20.321Z,2.33
2022-11-27T20:49:46.897Z,2.65
2022-11-27T20:52:14.753Z,3.10
2022-11-27T20:54:41.356Z,2.80
2022-11-27T20:57:13.878Z,2.67
2022-11-27T20:59:41.672Z,2.63
2022-11-27T21:02:12.666Z,2.65
2022-11-27T21:04:39.280Z,2.17
2022-11-27T21:07:06.413Z,2.40
2022-11-27T21:09:33.272Z,2.13
2022-11-27T21:12:00.201Z,2.38
2022-11-27T21:14:26.849Z,2.53
2022-11-27T21:16:54.369Z,2.10
2022-11-27T21:19:24.478Z,1.95
2022-11-27T21:21:52.465Z,1.98
2022-11-27T21:24:19.745Z,2.05
2022-11-27T21:26:47.077Z,2.15
2022-11-27T21:29:14.066Z,2.08
2022-11-27T21:31:46.361Z,2.28
2022-11-27T21:34:13.334Z,2.08
2022-11-27T21:36:39.883Z,2.33
2022-11-27T21:39:09.216Z,2.30
2022-11-27T21:41:36.530Z,2.40
2022-11-27T21:44:04.070Z,2.15
2022-11-27T21:46:31.715Z,2.60
2022-11-27T21:49:00.828Z,2.63
2022-11-27T21:51:28.904Z,2.70
2022-11-27T21:53:56.488Z,2.63
2022-11-27T21:56:26.854Z,2.60
2022-11-27T21:58:53.664Z,2.25
2022-11-27T22:01:23.024Z,2.40
2022-11-27T22:03:54.255Z,2.70
2022-11-27T22:06:22.961Z,2.35
2022-11-27T22:08:50.527Z,2.63
2022-11-27T22:11:23.023Z,2.25
2022-11-27T22:13:50.048Z,2.50
2022-11-27T22:16:19.767Z,2.55
2022-11-27T22:18:47.155Z,2.38
2022-11-27T22:21:14.445Z,2.58
2022-11-27T22:23:41.736Z,2.70
2022-11-27T22:26:11.766Z,2.83
2022-11-27T22:28:38.885Z,2.50
2022-11-27T22:31:17.222Z,2.58
2022-11-27T22:33:45.227Z,3.10
2022-11-27T22:36:21.782Z,2.83
2022-11-27T22:38:50.834Z,3.22
2022-11-27T22:41:19.419Z,2.70
2022-11-27T22:43:46.301Z,3.15
2022-11-27T22:46:28.251Z,3.00
2022-11-27T22:48:58.062Z,3.00
2022-11-27T22:51:25.771Z,3.05
2022-11-27T22:53:52.394Z,2.85
2022-11-27T22:56:19.510Z,2.85
2022-11-27T22:58:46.112Z,2.95
2022-11-27T23:04:22.579Z,3.05
2022-11-27T23:06:49.072Z,3.35
2022-11-27T23:09:17.931Z,3.38
2022-11-27T23:11:46.602Z,3.15
2022-11-27T23:14:13.403Z,3.53
2022-11-27T23:16:39.915Z,3.05
2022-11-27T23:19:06.509Z,3.60
2022-11-27T23:21:37.148Z,3.40
2022-11-27T23:24:04.791Z,3.63
2022-11-27T23:26:31.803Z,3.60
2022-11-27T23:28:58.320Z,3.75
2022-11-27T23:31:30.284Z,3.60
2022-11-27T23:33:57.866Z,3.63
2022-11-27T23:36:24.632Z,3.90
2022-11-27T23:38:51.006Z,3.30
2022-11-27T23:41:21.594Z,3.95
2022-11-27T23:43:48.621Z,4.13
2022-11-27T23:46:17.407Z,4.07
2022-11-27T23:48:44.603Z,3.75
2022-11-27T23:51:20.340Z,3.70
2022-11-27T23:53:47.516Z,4.03
2022-11-27T23:56:17.220Z,3.53
2022-11-27T23:58:46.938Z,3.92
